sensor_id;sensor_type;location;lat;lon;timestamp;pressure;altitude;pressure_sealevel;temperature;humidity
52975;BME280;38839;45.186;5.720;2023-05-20T00:00:22;98990.50;;;14.47;91.80
52975;BME280;38839;45.186;5.720;2023-05-20T00:02:56;98987.03;;;14.45;92.35
52975;BME280;38839;45.186;5.720;2023-05-20T00:05:29;98992.16;;;14.52;92.02
52975;BME280;38839;45.186;5.720;2023-05-20T00:08:00;98995.75;;;14.47;92.01
52975;BME280;38839;45.186;5.720;2023-05-20T00:10:32;98998.44;;;14.44;92.39
52975;BME280;38839;45.186;5.720;2023-05-20T00:13:08;98991.53;;;14.40;92.06
52975;BME280;38839;45.186;5.720;2023-05-20T00:15:42;98987.94;;;14.44;92.13
52975;BME280;38839;45.186;5.720;2023-05-20T00:18:15;98988.19;;;14.34;92.45
52975;BME280;38839;45.186;5.720;2023-05-20T00:20:46;98989.19;;;14.28;92.64
52975;BME280;38839;45.186;5.720;2023-05-20T00:23:19;98986.47;;;14.31;92.60
52975;BME280;38839;45.186;5.720;2023-05-20T00:25:50;98987.34;;;14.32;92.30
52975;BME280;38839;45.186;5.720;2023-05-20T00:28:24;98980.47;;;14.26;92.70
52975;BME280;38839;45.186;5.720;2023-05-20T00:30:56;98980.53;;;14.23;93.04
52975;BME280;38839;45.186;5.720;2023-05-20T00:33:27;98978.00;;;14.18;93.13
52975;BME280;38839;45.186;5.720;2023-05-20T00:35:58;98979.78;;;14.16;93.23
52975;BME280;38839;45.186;5.720;2023-05-20T00:38:30;98979.63;;;14.24;93.37
52975;BME280;38839;45.186;5.720;2023-05-20T00:41:02;98973.47;;;14.25;93.30
52975;BME280;38839;45.186;5.720;2023-05-20T00:43:33;98968.22;;;14.25;93.18
52975;BME280;38839;45.186;5.720;2023-05-20T00:46:06;98971.69;;;14.27;93.09
52975;BME280;38839;45.186;5.720;2023-05-20T00:48:42;98974.28;;;14.28;93.09
52975;BME280;38839;45.186;5.720;2023-05-20T00:51:14;98972.53;;;14.29;93.06
52975;BME280;38839;45.186;5.720;2023-05-20T00:53:44;98963.75;;;14.30;93.20
52975;BME280;38839;45.186;5.720;2023-05-20T00:56:14;98968.19;;;14.28;93.43
52975;BME280;38839;45.186;5.720;2023-05-20T00:58:49;98970.78;;;14.29;93.20
52975;BME280;38839;45.186;5.720;2023-05-20T01:01:21;98966.53;;;14.24;93.39
52975;BME280;38839;45.186;5.720;2023-05-20T01:03:52;98964.72;;;14.26;93.14
52975;BME280;38839;45.186;5.720;2023-05-20T01:06:26;98963.06;;;14.22;93.11
52975;BME280;38839;45.186;5.720;2023-05-20T01:08:59;98966.44;;;14.27;92.89
52975;BME280;38839;45.186;5.720;2023-05-20T01:11:36;98961.25;;;14.25;93.15
52975;BME280;38839;45.186;5.720;2023-05-20T01:14:08;98956.00;;;14.25;93.06
52975;BME280;38839;45.186;5.720;2023-05-20T01:16:39;98967.41;;;14.23;93.30
52975;BME280;38839;45.186;5.720;2023-05-20T01:19:30;98955.13;;;14.25;93.16
52975;BME280;38839;45.186;5.720;2023-05-20T01:22:06;98955.22;;;14.20;93.21
52975;BME280;38839;45.186;5.720;2023-05-20T01:24:38;98964.78;;;14.23;93.03
52975;BME280;38839;45.186;5.720;2023-05-20T01:27:09;98959.53;;;14.23;93.25
52975;BME280;38839;45.186;5.720;2023-05-20T01:29:39;98960.22;;;14.31;92.87
52975;BME280;38839;45.186;5.720;2023-05-20T01:32:12;98956.97;;;14.21;92.67
52975;BME280;38839;45.186;5.720;2023-05-20T01:34:44;98955.25;;;14.19;92.69
52975;BME280;38839;45.186;5.720;2023-05-20T01:37:18;98961.31;;;14.21;92.49
52975;BME280;38839;45.186;5.720;2023-05-20T01:39:48;98957.00;;;14.18;92.53
52975;BME280;38839;45.186;5.720;2023-05-20T01:42:17;98960.47;;;14.20;92.18
52975;BME280;38839;45.186;5.720;2023-05-20T01:44:48;98940.28;;;14.24;92.23
52975;BME280;38839;45.186;5.720;2023-05-20T01:47:20;98944.63;;;14.25;92.62
52975;BME280;38839;45.186;5.720;2023-05-20T01:49:54;98943.00;;;14.19;92.85
52975;BME280;38839;45.186;5.720;2023-05-20T01:52:25;98943.75;;;14.24;92.43
52975;BME280;38839;45.186;5.720;2023-05-20T01:54:58;98935.16;;;14.18;92.76
52975;BME280;38839;45.186;5.720;2023-05-20T01:57:31;98932.59;;;14.15;92.61
52975;BME280;38839;45.186;5.720;2023-05-20T02:00:02;98928.38;;;14.09;92.89
52975;BME280;38839;45.186;5.720;2023-05-20T02:02:35;98933.69;;;14.04;93.08
52975;BME280;38839;45.186;5.720;2023-05-20T02:05:08;98928.50;;;14.01;92.83
52975;BME280;38839;45.186;5.720;2023-05-20T02:07:41;98933.78;;;14.00;93.23
52975;BME280;38839;45.186;5.720;2023-05-20T02:10:15;98932.94;;;13.98;93.03
52975;BME280;38839;45.186;5.720;2023-05-20T02:12:47;98926.03;;;13.94;92.96
52975;BME280;38839;45.186;5.720;2023-05-20T02:15:19;98924.31;;;13.93;93.30
52975;BME280;38839;45.186;5.720;2023-05-20T02:17:49;98913.88;;;13.91;93.15
52975;BME280;38839;45.186;5.720;2023-05-20T02:20:22;98921.72;;;13.91;93.04
52975;BME280;38839;45.186;5.720;2023-05-20T02:22:52;98916.50;;;13.89;93.03
52975;BME280;38839;45.186;5.720;2023-05-20T02:25:24;98920.03;;;13.88;93.05
52975;BME280;38839;45.186;5.720;2023-05-20T02:27:55;98916.53;;;13.88;93.02
52975;BME280;38839;45.186;5.720;2023-05-20T02:30:25;98920.91;;;13.87;92.96
52975;BME280;38839;45.186;5.720;2023-05-20T02:32:55;98918.03;;;14.00;92.47
52975;BME280;38839;45.186;5.720;2023-05-20T02:35:26;98922.44;;;13.99;92.34
52975;BME280;38839;45.186;5.720;2023-05-20T02:37:57;98917.19;;;13.99;92.47
52975;BME280;38839;45.186;5.720;2023-05-20T02:40:29;98905.78;;;14.00;92.48
52975;BME280;38839;45.186;5.720;2023-05-20T02:43:01;98911.88;;;14.02;92.04
52975;BME280;38839;45.186;5.720;2023-05-20T02:45:32;98911.16;;;13.94;92.39
52975;BME280;38839;45.186;5.720;2023-05-20T02:48:03;98895.34;;;13.99;92.13
52975;BME280;38839;45.186;5.720;2023-05-20T02:50:38;98906.84;;;13.92;92.12
52975;BME280;38839;45.186;5.720;2023-05-20T02:53:10;98905.84;;;13.99;92.09
52975;BME280;38839;45.186;5.720;2023-05-20T02:55:40;98909.25;;;14.02;91.82
52975;BME280;38839;45.186;5.720;2023-05-20T02:58:10;98905.63;;;14.08;91.62
52975;BME280;38839;45.186;5.720;2023-05-20T03:00:40;98905.63;;;14.08;91.18
52975;BME280;38839;45.186;5.720;2023-05-20T03:03:13;98901.22;;;14.10;91.12
52975;BME280;38839;45.186;5.720;2023-05-20T03:05:45;98900.28;;;14.13;90.83
52975;BME280;38839;45.186;5.720;2023-05-20T03:08:17;98898.47;;;14.15;90.96
52975;BME280;38839;45.186;5.720;2023-05-20T03:10:48;98905.47;;;14.16;91.07
52975;BME280;38839;45.186;5.720;2023-05-20T03:13:19;98893.25;;;14.15;91.06
52975;BME280;38839;45.186;5.720;2023-05-20T03:15:51;98891.66;;;14.07;91.04
52975;BME280;38839;45.186;5.720;2023-05-20T03:18:22;98889.00;;;14.09;90.64
52975;BME280;38839;45.186;5.720;2023-05-20T03:20:53;98889.84;;;14.11;90.62
52975;BME280;38839;45.186;5.720;2023-05-20T03:23:23;98884.63;;;14.09;90.15
52975;BME280;38839;45.186;5.720;2023-05-20T03:25:53;98881.22;;;14.04;90.22
52975;BME280;38839;45.186;5.720;2023-05-20T03:28:25;98883.78;;;14.07;90.25
52975;BME280;38839;45.186;5.720;2023-05-20T03:30:55;98878.41;;;14.14;89.89
52975;BME280;38839;45.186;5.720;2023-05-20T03:33:28;98883.69;;;14.12;89.78
52975;BME280;38839;45.186;5.720;2023-05-20T03:36:00;98884.50;;;14.16;89.62
52975;BME280;38839;45.186;5.720;2023-05-20T03:38:30;98885.44;;;14.12;89.71
52975;BME280;38839;45.186;5.720;2023-05-20T03:41:03;98877.63;;;14.08;89.63
52975;BME280;38839;45.186;5.720;2023-05-20T03:43:34;98880.31;;;14.07;89.45
52975;BME280;38839;45.186;5.720;2023-05-20T03:46:08;98879.50;;;14.03;89.52
52975;BME280;38839;45.186;5.720;2023-05-20T03:48:38;98876.16;;;13.97;89.49
52975;BME280;38839;45.186;5.720;2023-05-20T03:51:09;98876.09;;;13.98;89.48
52975;BME280;38839;45.186;5.720;2023-05-20T03:53:39;98871.00;;;13.92;89.63
52975;BME280;38839;45.186;5.720;2023-05-20T03:56:12;98872.72;;;13.93;89.76
52975;BME280;38839;45.186;5.720;2023-05-20T03:58:42;98876.91;;;14.02;89.45
52975;BME280;38839;45.186;5.720;2023-05-20T04:01:15;98874.25;;;14.03;89.48
52975;BME280;38839;45.186;5.720;2023-05-20T04:03:45;98874.31;;;14.00;89.36
52975;BME280;38839;45.186;5.720;2023-05-20T04:06:17;98882.13;;;14.03;89.11
52975;BME280;38839;45.186;5.720;2023-05-20T04:08:49;98870.84;;;13.98;88.88
52975;BME280;38839;45.186;5.720;2023-05-20T04:11:24;98877.06;;;13.94;89.07
52975;BME280;38839;45.186;5.720;2023-05-20T04:13:54;98874.50;;;13.93;89.07
52975;BME280;38839;45.186;5.720;2023-05-20T04:16:25;98873.53;;;13.97;88.85
52975;BME280;38839;45.186;5.720;2023-05-20T04:18:56;98871.00;;;13.92;88.81
52975;BME280;38839;45.186;5.720;2023-05-20T04:21:29;98872.78;;;13.90;88.57
52975;BME280;38839;45.186;5.720;2023-05-20T04:27:03;98874.44;;;13.94;88.37
52975;BME280;38839;45.186;5.720;2023-05-20T04:29:28;98866.56;;;13.94;88.47
52975;BME280;38839;45.186;5.720;2023-05-20T04:31:54;98857.00;;;13.93;87.95
52975;BME280;38839;45.186;5.720;2023-05-20T04:34:22;98858.72;;;13.94;88.10
52975;BME280;38839;45.186;5.720;2023-05-20T04:36:50;98851.81;;;13.90;87.78
52975;BME280;38839;45.186;5.720;2023-05-20T04:39:16;98863.06;;;13.95;88.03
52975;BME280;38839;45.186;5.720;2023-05-20T04:41:44;98855.34;;;13.89;87.70
52975;BME280;38839;45.186;5.720;2023-05-20T04:44:09;98862.41;;;13.84;88.01
52975;BME280;38839;45.186;5.720;2023-05-20T04:46:35;98855.47;;;13.83;87.84
52975;BME280;38839;45.186;5.720;2023-05-20T04:49:00;98868.44;;;13.89;87.60
52975;BME280;38839;45.186;5.720;2023-05-20T04:51:26;98869.41;;;13.85;87.70
52975;BME280;38839;45.186;5.720;2023-05-20T04:53:51;98857.31;;;13.78;87.85
52975;BME280;38839;45.186;5.720;2023-05-20T04:56:17;98861.66;;;13.79;87.89
52975;BME280;38839;45.186;5.720;2023-05-20T04:58:42;98859.84;;;13.82;87.69
52975;BME280;38839;45.186;5.720;2023-05-20T05:01:07;98865.13;;;13.81;87.56
52975;BME280;38839;45.186;5.720;2023-05-20T05:03:33;98861.69;;;13.77;87.93
52975;BME280;38839;45.186;5.720;2023-05-20T05:05:58;98850.41;;;13.74;87.77
52975;BME280;38839;45.186;5.720;2023-05-20T05:08:24;98866.09;;;13.77;87.65
52975;BME280;38839;45.186;5.720;2023-05-20T05:10:52;98852.19;;;13.72;87.64
52975;BME280;38839;45.186;5.720;2023-05-20T05:13:17;98853.97;;;13.71;87.58
52975;BME280;38839;45.186;5.720;2023-05-20T05:15:43;98850.41;;;13.74;87.62
52975;BME280;38839;45.186;5.720;2023-05-20T05:18:08;98846.81;;;13.78;87.55
52975;BME280;38839;45.186;5.720;2023-05-20T05:20:34;98848.59;;;13.76;87.46
52975;BME280;38839;45.186;5.720;2023-05-20T05:22:59;98849.44;;;13.78;87.39
52975;BME280;38839;45.186;5.720;2023-05-20T05:25:24;98842.41;;;13.80;87.48
52975;BME280;38839;45.186;5.720;2023-05-20T05:27:50;98843.31;;;13.79;87.06
52975;BME280;38839;45.186;5.720;2023-05-20T05:30:15;98845.03;;;13.80;86.98
52975;BME280;38839;45.186;5.720;2023-05-20T05:32:41;98855.34;;;13.89;86.15
52975;BME280;38839;45.186;5.720;2023-05-20T05:35:07;98847.53;;;13.86;86.55
52975;BME280;38839;45.186;5.720;2023-05-20T05:37:32;98848.47;;;13.82;86.33
52975;BME280;38839;45.186;5.720;2023-05-20T05:39:58;98844.06;;;13.84;86.14
52975;BME280;38839;45.186;5.720;2023-05-20T05:42:23;98839.66;;;13.86;86.00
52975;BME280;38839;45.186;5.720;2023-05-20T05:44:49;98845.81;;;13.85;86.04
52975;BME280;38839;45.186;5.720;2023-05-20T05:47:14;98840.47;;;13.88;85.93
52975;BME280;38839;45.186;5.720;2023-05-20T05:49:40;98846.44;;;13.96;85.74
52975;BME280;38839;45.186;5.720;2023-05-20T05:52:05;98842.91;;;13.99;85.63
52975;BME280;38839;45.186;5.720;2023-05-20T05:54:30;98845.38;;;14.05;85.03
52975;BME280;38839;45.186;5.720;2023-05-20T05:56:56;98844.44;;;14.07;84.73
52975;BME280;38839;45.186;5.720;2023-05-20T05:59:21;98851.31;;;14.13;84.72
52975;BME280;38839;45.186;5.720;2023-05-20T06:01:47;98845.97;;;14.18;84.24
52975;BME280;38839;45.186;5.720;2023-05-20T06:04:14;98845.75;;;14.27;83.64
52975;BME280;38839;45.186;5.720;2023-05-20T06:06:40;98846.69;;;14.24;83.78
52975;BME280;38839;45.186;5.720;2023-05-20T06:09:05;98849.25;;;14.27;83.66
52975;BME280;38839;45.186;5.720;2023-05-20T06:11:31;98848.31;;;14.30;83.32
52975;BME280;38839;45.186;5.720;2023-05-20T06:13:56;98850.16;;;14.25;83.13
52975;BME280;38839;45.186;5.720;2023-05-20T06:16:22;98852.63;;;14.31;82.61
52975;BME280;38839;45.186;5.720;2023-05-20T06:18:47;98855.34;;;14.28;82.69
52975;BME280;38839;45.186;5.720;2023-05-20T06:21:15;98861.19;;;14.39;82.43
52975;BME280;38839;45.186;5.720;2023-05-20T06:23:41;98860.28;;;14.42;82.29
52975;BME280;38839;45.186;5.720;2023-05-20T06:26:06;98846.97;;;14.49;82.08
52975;BME280;38839;45.186;5.720;2023-05-20T06:28:33;98846.06;;;14.51;81.91
52975;BME280;38839;45.186;5.720;2023-05-20T06:30:59;98846.78;;;14.59;81.67
52975;BME280;38839;45.186;5.720;2023-05-20T06:33:25;98844.13;;;14.60;81.58
52975;BME280;38839;45.186;5.720;2023-05-20T06:35:52;98842.25;;;14.65;81.45
52975;BME280;38839;45.186;5.720;2023-05-20T06:38:18;98841.19;;;14.73;81.22
52975;BME280;38839;45.186;5.720;2023-05-20T06:40:44;98834.25;;;14.70;80.97
52975;BME280;38839;45.186;5.720;2023-05-20T06:43:09;98840.22;;;14.77;81.29
52975;BME280;38839;45.186;5.720;2023-05-20T06:45:35;98837.63;;;14.75;80.79
52975;BME280;38839;45.186;5.720;2023-05-20T06:48:00;98836.84;;;14.72;80.67
52975;BME280;38839;45.186;5.720;2023-05-20T06:50:25;98847.88;;;14.84;80.79
52975;BME280;38839;45.186;5.720;2023-05-20T06:52:52;98841.81;;;14.82;79.90
52975;BME280;38839;45.186;5.720;2023-05-20T06:55:18;98843.31;;;14.93;79.52
52975;BME280;38839;45.186;5.720;2023-05-20T06:57:43;98839.53;;;15.03;79.00
52975;BME280;38839;45.186;5.720;2023-05-20T07:00:09;98838.56;;;15.07;79.10
52975;BME280;38839;45.186;5.720;2023-05-20T07:02:35;98840.16;;;15.13;78.74
52975;BME280;38839;45.186;5.720;2023-05-20T07:05:00;98836.84;;;15.06;79.03
52975;BME280;38839;45.186;5.720;2023-05-20T07:07:26;98844.41;;;15.18;78.37
52975;BME280;38839;45.186;5.720;2023-05-20T07:09:52;98837.06;;;15.29;78.22
52975;BME280;38839;45.186;5.720;2023-05-20T07:12:17;98837.72;;;15.38;77.76
52975;BME280;38839;45.186;5.720;2023-05-20T07:14:42;98834.03;;;15.45;77.76
52975;BME280;38839;45.186;5.720;2023-05-20T07:17:08;98832.94;;;15.52;77.30
52975;BME280;38839;45.186;5.720;2023-05-20T07:19:33;98837.38;;;15.50;77.40
52975;BME280;38839;45.186;5.720;2023-05-20T07:21:59;98839.13;;;15.51;77.42
52975;BME280;38839;45.186;5.720;2023-05-20T07:24:25;98836.38;;;15.54;76.83
52975;BME280;38839;45.186;5.720;2023-05-20T07:26:50;98845.34;;;15.48;77.13
52975;BME280;38839;45.186;5.720;2023-05-20T07:29:15;98837.66;;;15.41;77.49
52975;BME280;38839;45.186;5.720;2023-05-20T07:31:41;98833.38;;;15.37;77.59
52975;BME280;38839;45.186;5.720;2023-05-20T07:34:06;98830.88;;;15.32;77.44
52975;BME280;38839;45.186;5.720;2023-05-20T07:36:32;98830.81;;;15.34;77.38
52975;BME280;38839;45.186;5.720;2023-05-20T07:38:57;98827.94;;;15.12;77.98
52975;BME280;38839;45.186;5.720;2023-05-20T07:41:23;98828.88;;;15.09;78.14
52975;BME280;38839;45.186;5.720;2023-05-20T07:43:48;98825.19;;;15.16;77.89
52975;BME280;38839;45.186;5.720;2023-05-20T07:46:14;98826.06;;;15.15;77.85
52975;BME280;38839;45.186;5.720;2023-05-20T07:48:40;98821.63;;;15.17;77.79
52975;BME280;38839;45.186;5.720;2023-05-20T07:51:06;98812.75;;;15.21;77.67
52975;BME280;38839;45.186;5.720;2023-05-20T07:53:32;98812.59;;;15.27;77.75
52975;BME280;38839;45.186;5.720;2023-05-20T07:55:58;98809.75;;;15.35;77.16
52975;BME280;38839;45.186;5.720;2023-05-20T07:58:23;98816.00;;;15.31;77.30
52975;BME280;38839;45.186;5.720;2023-05-20T08:00:48;98813.53;;;15.26;77.50
52975;BME280;38839;45.186;5.720;2023-05-20T08:03:14;98811.78;;;15.25;77.67
52975;BME280;38839;45.186;5.720;2023-05-20T08:05:40;98815.31;;;15.24;77.49
52975;BME280;38839;45.186;5.720;2023-05-20T08:08:06;98808.25;;;15.26;77.40
52975;BME280;38839;45.186;5.720;2023-05-20T08:10:31;98811.41;;;15.39;77.42
52975;BME280;38839;45.186;5.720;2023-05-20T08:12:57;98805.94;;;15.47;77.05
52975;BME280;38839;45.186;5.720;2023-05-20T08:15:22;98811.19;;;15.47;76.98
52975;BME280;38839;45.186;5.720;2023-05-20T08:17:48;98809.38;;;15.49;76.85
52975;BME280;38839;45.186;5.720;2023-05-20T08:20:13;98799.75;;;15.48;76.79
52975;BME280;38839;45.186;5.720;2023-05-20T08:22:39;98812.91;;;15.48;77.00
52975;BME280;38839;45.186;5.720;2023-05-20T08:25:07;98813.00;;;15.45;77.10
52975;BME280;38839;45.186;5.720;2023-05-20T08:27:32;98807.09;;;15.37;77.22
52975;BME280;38839;45.186;5.720;2023-05-20T08:29:58;98803.78;;;15.30;77.43
52975;BME280;38839;45.186;5.720;2023-05-20T08:32:24;98798.59;;;15.27;77.27
52975;BME280;38839;45.186;5.720;2023-05-20T08:34:50;98803.63;;;15.36;77.40
52975;BME280;38839;45.186;5.720;2023-05-20T08:37:20;98814.03;;;15.39;76.76
52975;BME280;38839;45.186;5.720;2023-05-20T08:39:46;98815.94;;;15.34;76.80
52975;BME280;38839;45.186;5.720;2023-05-20T08:42:13;98808.78;;;15.39;76.54
52975;BME280;38839;45.186;5.720;2023-05-20T08:44:40;98806.88;;;15.44;76.37
52975;BME280;38839;45.186;5.720;2023-05-20T08:47:06;98816.34;;;15.50;75.77
52975;BME280;38839;45.186;5.720;2023-05-20T08:49:32;98811.84;;;15.55;75.35
52975;BME280;38839;45.186;5.720;2023-05-20T08:51:59;98806.09;;;15.41;75.76
52975;BME280;38839;45.186;5.720;2023-05-20T08:54:32;98811.09;;;15.50;74.75
52975;BME280;38839;45.186;5.720;2023-05-20T08:57:04;98802.91;;;15.61;74.82
52975;BME280;38839;45.186;5.720;2023-05-20T08:59:29;98813.28;;;15.65;74.34
52975;BME280;38839;45.186;5.720;2023-05-20T09:01:55;98807.06;;;15.68;74.28
52975;BME280;38839;45.186;5.720;2023-05-20T09:04:20;98808.19;;;15.61;74.40
52975;BME280;38839;45.186;5.720;2023-05-20T09:06:46;98811.47;;;15.67;74.35
52975;BME280;38839;45.186;5.720;2023-05-20T09:09:12;98806.88;;;15.76;73.84
52975;BME280;38839;45.186;5.720;2023-05-20T09:11:39;98811.97;;;15.82;73.94
52975;BME280;38839;45.186;5.720;2023-05-20T09:14:04;98809.19;;;15.86;73.57
52975;BME280;38839;45.186;5.720;2023-05-20T09:16:30;98811.38;;;16.02;73.07
52975;BME280;38839;45.186;5.720;2023-05-20T09:18:55;98805.97;;;16.06;72.71
52975;BME280;38839;45.186;5.720;2023-05-20T09:21:28;98807.03;;;16.27;71.88
52975;BME280;38839;45.186;5.720;2023-05-20T09:23:54;98810.34;;;16.34;71.88
52975;BME280;38839;45.186;5.720;2023-05-20T09:26:22;98814.19;;;16.50;71.02
52975;BME280;38839;45.186;5.720;2023-05-20T09:28:49;98802.25;;;16.67;70.38
52975;BME280;38839;45.186;5.720;2023-05-20T09:31:15;98805.47;;;16.75;69.93
52975;BME280;38839;45.186;5.720;2023-05-20T09:33:40;98797.41;;;16.81;69.65
52975;BME280;38839;45.186;5.720;2023-05-20T09:36:07;98797.06;;;16.92;69.43
52975;BME280;38839;45.186;5.720;2023-05-20T09:38:36;98794.34;;;16.94;69.29
52975;BME280;38839;45.186;5.720;2023-05-20T09:41:11;98792.50;;;16.96;68.45
52975;BME280;38839;45.186;5.720;2023-05-20T09:43:38;98800.47;;;17.19;68.01
52975;BME280;38839;45.186;5.720;2023-05-20T09:46:04;98800.13;;;17.28;67.46
52975;BME280;38839;45.186;5.720;2023-05-20T09:48:30;98793.69;;;17.37;66.73
52975;BME280;38839;45.186;5.720;2023-05-20T09:50:56;98789.38;;;17.35;66.94
52975;BME280;38839;45.186;5.720;2023-05-20T09:53:25;98789.03;;;17.44;66.02
52975;BME280;38839;45.186;5.720;2023-05-20T09:55:52;98781.19;;;17.42;66.35
52975;BME280;38839;45.186;5.720;2023-05-20T09:58:19;98782.75;;;17.48;65.98
52975;BME280;38839;45.186;5.720;2023-05-20T10:00:44;98773.69;;;17.32;66.25
52975;BME280;38839;45.186;5.720;2023-05-20T10:03:11;98780.78;;;17.29;66.24
52975;BME280;38839;45.186;5.720;2023-05-20T10:05:40;98782.63;;;17.27;66.46
52975;BME280;38839;45.186;5.720;2023-05-20T10:08:34;98778.41;;;17.22;66.36
52975;BME280;38839;45.186;5.720;2023-05-20T10:16:25;98770.50;;;18.15;64.00
52975;BME280;38839;45.186;5.720;2023-05-20T10:21:37;98775.31;;;18.27;63.19
52975;BME280;38839;45.186;5.720;2023-05-20T10:24:09;98766.81;;;18.41;62.84
52975;BME280;38839;45.186;5.720;2023-05-20T10:26:40;98758.59;;;18.48;62.50
52975;BME280;38839;45.186;5.720;2023-05-20T10:29:19;98762.66;;;18.35;62.65
52975;BME280;38839;45.186;5.720;2023-05-20T10:31:51;98768.13;;;18.30;62.96
52975;BME280;38839;45.186;5.720;2023-05-20T10:34:21;98757.19;;;18.40;62.54
52975;BME280;38839;45.186;5.720;2023-05-20T10:39:18;98756.84;;;18.47;62.89
52975;BME280;38839;45.186;5.720;2023-05-20T10:41:44;98752.91;;;18.58;62.46
52975;BME280;38839;45.186;5.720;2023-05-20T10:44:09;98751.81;;;18.41;63.03
52975;BME280;38839;45.186;5.720;2023-05-20T10:46:35;98750.50;;;18.31;62.91
52975;BME280;38839;45.186;5.720;2023-05-20T10:49:01;98747.72;;;18.56;62.53
52975;BME280;38839;45.186;5.720;2023-05-20T10:51:30;98746.66;;;18.60;62.30
52975;BME280;38839;45.186;5.720;2023-05-20T10:53:57;98758.44;;;18.52;62.40
52975;BME280;38839;45.186;5.720;2023-05-20T10:56:24;98751.31;;;18.54;61.97
52975;BME280;38839;45.186;5.720;2023-05-20T10:58:52;98750.00;;;18.64;61.52
52975;BME280;38839;45.186;5.720;2023-05-20T11:01:21;98744.75;;;18.84;60.89
52975;BME280;38839;45.186;5.720;2023-05-20T11:03:48;98739.97;;;19.13;59.60
52975;BME280;38839;45.186;5.720;2023-05-20T11:06:15;98744.59;;;19.28;58.76
52975;BME280;38839;45.186;5.720;2023-05-20T11:08:41;98740.00;;;19.72;57.83
52975;BME280;38839;45.186;5.720;2023-05-20T11:11:07;98738.56;;;19.83;57.55
52975;BME280;38839;45.186;5.720;2023-05-20T11:13:34;98738.66;;;20.18;56.43
52975;BME280;38839;45.186;5.720;2023-05-20T11:16:00;98736.47;;;20.44;55.83
52975;BME280;38839;45.186;5.720;2023-05-20T11:18:26;98738.41;;;20.23;55.56
52975;BME280;38839;45.186;5.720;2023-05-20T11:21:03;98735.03;;;19.83;55.32
52975;BME280;38839;45.186;5.720;2023-05-20T11:23:29;98740.13;;;19.87;55.73
52975;BME280;38839;45.186;5.720;2023-05-20T11:25:55;98731.47;;;19.65;55.85
52975;BME280;38839;45.186;5.720;2023-05-20T11:28:22;98739.75;;;19.38;57.04
52975;BME280;38839;45.186;5.720;2023-05-20T11:30:51;98727.63;;;19.14;57.65
52975;BME280;38839;45.186;5.720;2023-05-20T11:33:17;98726.41;;;19.40;56.91
52975;BME280;38839;45.186;5.720;2023-05-20T11:35:50;98720.50;;;19.35;56.78
52975;BME280;38839;45.186;5.720;2023-05-20T11:38:17;98723.00;;;19.38;56.61
52975;BME280;38839;45.186;5.720;2023-05-20T11:40:48;98719.16;;;19.45;56.77
52975;BME280;38839;45.186;5.720;2023-05-20T11:43:14;98714.03;;;19.80;55.84
52975;BME280;38839;45.186;5.720;2023-05-20T11:45:45;98704.25;;;19.99;55.26
52975;BME280;38839;45.186;5.720;2023-05-20T11:48:10;98715.72;;;20.17;55.00
52975;BME280;38839;45.186;5.720;2023-05-20T11:50:44;98712.97;;;20.01;54.38
52975;BME280;38839;45.186;5.720;2023-05-20T11:53:14;98709.50;;;20.18;54.57
52975;BME280;38839;45.186;5.720;2023-05-20T11:55:53;98713.53;;;20.08;54.10
52975;BME280;38839;45.186;5.720;2023-05-20T11:58:21;98709.69;;;19.96;54.93
52975;BME280;38839;45.186;5.720;2023-05-20T12:00:47;98701.78;;;20.14;54.37
52975;BME280;38839;45.186;5.720;2023-05-20T12:03:12;98705.38;;;20.13;54.23
52975;BME280;38839;45.186;5.720;2023-05-20T12:05:39;98705.84;;;20.21;54.17
52975;BME280;38839;45.186;5.720;2023-05-20T12:08:05;98712.94;;;20.20;53.63
52975;BME280;38839;45.186;5.720;2023-05-20T12:10:30;98686.66;;;19.98;54.10
52975;BME280;38839;45.186;5.720;2023-05-20T12:12:57;98698.41;;;19.93;54.29
52975;BME280;38839;45.186;5.720;2023-05-20T12:15:22;98698.81;;;20.02;54.36
52975;BME280;38839;45.186;5.720;2023-05-20T12:17:50;98695.81;;;19.91;54.83
52975;BME280;38839;45.186;5.720;2023-05-20T12:20:17;98690.81;;;19.66;55.12
52975;BME280;38839;45.186;5.720;2023-05-20T12:22:44;98696.81;;;19.69;55.32
52975;BME280;38839;45.186;5.720;2023-05-20T12:25:14;98686.16;;;19.52;56.00
52975;BME280;38839;45.186;5.720;2023-05-20T12:27:42;98693.75;;;19.79;55.72
52975;BME280;38839;45.186;5.720;2023-05-20T12:30:14;98695.25;;;19.65;55.79
52975;BME280;38839;45.186;5.720;2023-05-20T12:32:40;98698.28;;;19.77;56.12
52975;BME280;38839;45.186;5.720;2023-05-20T12:35:06;98696.03;;;19.86;55.83
52975;BME280;38839;45.186;5.720;2023-05-20T12:37:31;98694.06;;;19.73;55.82
52975;BME280;38839;45.186;5.720;2023-05-20T12:39:58;98698.13;;;19.80;55.38
52975;BME280;38839;45.186;5.720;2023-05-20T12:42:23;98707.72;;;19.82;55.96
52975;BME280;38839;45.186;5.720;2023-05-20T12:44:48;98698.28;;;20.13;54.99
52975;BME280;38839;45.186;5.720;2023-05-20T12:47:14;98700.38;;;20.06;55.16
52975;BME280;38839;45.186;5.720;2023-05-20T12:49:40;98698.22;;;20.15;54.93
52975;BME280;38839;45.186;5.720;2023-05-20T12:52:05;98684.78;;;20.18;54.89
52975;BME280;38839;45.186;5.720;2023-05-20T12:54:31;98682.22;;;19.99;54.61
52975;BME280;38839;45.186;5.720;2023-05-20T12:56:57;98682.44;;;19.94;55.38
52975;BME280;38839;45.186;5.720;2023-05-20T12:59:23;98689.53;;;20.11;55.01
52975;BME280;38839;45.186;5.720;2023-05-20T13:01:48;98682.63;;;20.08;55.18
52975;BME280;38839;45.186;5.720;2023-05-20T13:04:14;98683.00;;;20.01;55.00
52975;BME280;38839;45.186;5.720;2023-05-20T13:06:39;98696.22;;;20.01;55.08
52975;BME280;38839;45.186;5.720;2023-05-20T13:09:06;98690.81;;;19.66;55.74
52975;BME280;38839;45.186;5.720;2023-05-20T13:11:32;98685.16;;;19.36;56.53
52975;BME280;38839;45.186;5.720;2023-05-20T13:14:00;98687.69;;;19.39;57.04
52975;BME280;38839;45.186;5.720;2023-05-20T13:16:26;98681.53;;;19.19;57.19
52975;BME280;38839;45.186;5.720;2023-05-20T13:18:51;98686.03;;;19.17;57.33